createdAt,value
2019-06-20T00:00:41.228Z,6.50
2019-06-20T00:03:13.992Z,6.62
2019-06-20T00:05:45.892Z,6.28
2019-06-20T00:08:18.381Z,7.05
2019-06-20T00:10:50.717Z,6.03
2019-06-20T00:13:23.073Z,6.80
2019-06-20T00:15:55.650Z,6.58
2019-06-20T00:18:28.639Z,6.70
2019-06-20T00:21:01.023Z,7.20
2019-06-20T00:23:33.488Z,6.75
2019-06-20T00:26:05.810Z,6.78
2019-06-20T00:28:39.473Z,6.97
2019-06-20T00:31:11.637Z,6.62
2019-06-20T00:33:43.748Z,6.97
2019-06-20T00:36:18.016Z,7.42
2019-06-20T00:38:50.079Z,7.30
2019-06-20T00:41:22.000Z,7.25
2019-06-20T00:43:53.756Z,7.15
2019-06-20T00:46:25.908Z,7.17
2019-06-20T00:48:57.961Z,7.42
2019-06-20T00:51:29.997Z,8.03
2019-06-20T00:54:01.998Z,9.20
2019-06-20T00:56:34.219Z,8.48
2019-06-20T00:59:06.239Z,8.88
2019-06-20T01:01:38.252Z,8.10
2019-06-20T01:04:10.332Z,8.80
2019-06-20T01:06:42.670Z,8.50
2019-06-20T01:09:14.622Z,9.45
2019-06-20T01:11:46.703Z,9.30
2019-06-20T01:14:18.759Z,10.10
2019-06-20T01:16:51.916Z,12.82
2019-06-20T01:19:23.915Z,11.97
2019-06-20T01:21:55.980Z,8.78
2019-06-20T01:24:28.095Z,9.10
2019-06-20T01:27:00.190Z,9.00
2019-06-20T01:29:32.409Z,8.18
2019-06-20T01:32:04.529Z,8.55
2019-06-20T01:34:36.606Z,9.15
2019-06-20T01:37:09.805Z,9.13
2019-06-20T01:39:41.890Z,8.53
2019-06-20T01:42:13.947Z,8.35
2019-06-20T01:44:46.130Z,8.25
2019-06-20T01:47:19.530Z,8.08
2019-06-20T01:49:51.528Z,7.93
2019-06-20T01:52:24.292Z,8.25
2019-06-20T01:54:56.330Z,8.13
2019-06-20T01:57:28.938Z,13.72
2019-06-20T02:00:01.041Z,8.83
2019-06-20T02:02:36.693Z,7.97
2019-06-20T02:05:08.720Z,8.38
2019-06-20T02:07:42.814Z,9.25
2019-06-20T02:10:14.900Z,9.55
2019-06-20T02:12:47.663Z,9.45
2019-06-20T02:15:19.834Z,9.40
2019-06-20T02:17:52.282Z,10.03
2019-06-20T02:20:33.632Z,9.58
2019-06-20T02:23:06.346Z,9.43
2019-06-20T02:25:38.388Z,9.28
2019-06-20T02:28:11.185Z,10.28
2019-06-20T02:30:43.300Z,17.55
2019-06-20T02:33:15.444Z,16.05
2019-06-20T02:35:47.568Z,10.10
2019-06-20T02:38:20.371Z,9.48
2019-06-20T02:40:52.377Z,10.68
2019-06-20T02:43:24.379Z,10.10
2019-06-20T02:45:57.971Z,9.95
2019-06-20T02:48:30.459Z,9.83
2019-06-20T02:51:03.134Z,9.40
2019-06-20T02:53:35.198Z,9.85
2019-06-20T02:56:07.361Z,9.55
2019-06-20T02:58:40.038Z,9.03
2019-06-20T03:01:12.269Z,9.53
2019-06-20T03:03:44.570Z,9.15
2019-06-20T03:06:16.756Z,9.88
2019-06-20T03:08:49.226Z,9.55
2019-06-20T03:11:21.303Z,9.38
2019-06-20T03:13:53.471Z,9.73
2019-06-20T03:16:26.067Z,9.35
2019-06-20T03:18:58.188Z,9.80
2019-06-20T03:21:30.242Z,9.10
2019-06-20T03:24:02.398Z,9.15
2019-06-20T03:26:34.710Z,9.25
2019-06-20T03:29:06.974Z,8.80
2019-06-20T03:31:39.100Z,8.55
2019-06-20T03:34:11.197Z,8.33
2019-06-20T03:36:43.383Z,6.85
2019-06-20T03:39:15.433Z,8.03
2019-06-20T03:41:47.494Z,7.05
2019-06-20T03:44:19.632Z,7.78
2019-06-20T03:46:51.684Z,7.80
2019-06-20T03:49:23.683Z,8.03
2019-06-20T03:51:55.705Z,8.00
2019-06-20T03:54:27.850Z,8.15
2019-06-20T03:57:00.603Z,7.83
2019-06-20T03:59:33.095Z,8.13
2019-06-20T04:02:06.754Z,8.58
2019-06-20T04:04:40.825Z,8.63
2019-06-20T04:07:13.166Z,8.43
2019-06-20T04:09:45.456Z,9.35
2019-06-20T04:12:17.703Z,11.88
2019-06-20T04:14:49.999Z,14.70
2019-06-20T04:17:22.296Z,11.48
2019-06-20T04:19:54.326Z,10.25
2019-06-20T04:22:27.415Z,10.18
2019-06-20T04:24:59.741Z,9.85
2019-06-20T04:27:31.727Z,9.70
2019-06-20T04:30:05.611Z,8.95
2019-06-20T04:32:37.539Z,8.83
2019-06-20T04:35:10.700Z,9.25
2019-06-20T04:37:42.703Z,8.70
2019-06-20T04:40:14.764Z,8.63
2019-06-20T04:42:46.809Z,8.30
2019-06-20T04:45:34.483Z,8.10
2019-06-20T04:47:57.552Z,8.63
2019-06-20T04:50:29.728Z,8.80
2019-06-20T04:53:01.751Z,7.85
2019-06-20T04:55:33.845Z,8.33
2019-06-20T04:58:06.022Z,8.28
2019-06-20T05:00:38.290Z,18.48
2019-06-20T05:03:10.663Z,10.60
2019-06-20T05:05:43.953Z,11.80
2019-06-20T05:08:16.025Z,11.97
2019-06-20T05:10:48.098Z,11.30
2019-06-20T05:13:20.283Z,12.58
2019-06-20T05:15:53.467Z,12.93
2019-06-20T05:18:25.692Z,13.08
2019-06-20T05:20:57.825Z,12.82
2019-06-20T05:23:29.934Z,16.20
2019-06-20T05:26:02.118Z,11.33
2019-06-20T05:28:35.192Z,13.60
2019-06-20T05:31:07.574Z,13.48
2019-06-20T05:33:39.631Z,12.82
2019-06-20T05:36:11.791Z,13.03
2019-06-20T05:38:43.853Z,12.50
2019-06-20T05:41:16.056Z,9.43
2019-06-20T05:43:48.296Z,9.78
2019-06-20T05:46:20.465Z,11.30
2019-06-20T05:48:52.636Z,12.65
2019-06-20T05:51:24.832Z,10.85
2019-06-20T05:53:56.974Z,9.33
2019-06-20T05:56:29.213Z,7.80
2019-06-20T05:59:01.807Z,8.40
2019-06-20T06:01:34.101Z,11.55
2019-06-20T06:04:06.152Z,13.30
2019-06-20T06:06:38.311Z,11.93
2019-06-20T06:09:10.254Z,12.80
2019-06-20T06:11:42.275Z,14.47
2019-06-20T06:14:14.333Z,13.13
2019-06-20T06:16:47.497Z,10.43
2019-06-20T06:19:19.509Z,10.63
2019-06-20T06:21:51.513Z,8.80
2019-06-20T06:24:23.516Z,8.08
2019-06-20T06:26:59.687Z,8.15
2019-06-20T06:29:29.355Z,8.63
2019-06-20T06:32:01.484Z,8.73
2019-06-20T06:34:33.437Z,9.43
2019-06-20T06:37:05.910Z,9.68
2019-06-20T06:39:37.985Z,7.90
2019-06-20T06:42:10.189Z,6.85
2019-06-20T06:44:42.662Z,6.62
2019-06-20T06:47:14.936Z,7.03
2019-06-20T06:49:47.114Z,10.20
2019-06-20T06:52:19.145Z,11.35
2019-06-20T06:54:51.229Z,5.90
2019-06-20T06:57:24.924Z,7.85
2019-06-20T06:59:57.171Z,7.03
2019-06-20T07:02:29.261Z,6.85
2019-06-20T07:05:01.732Z,6.67
2019-06-20T07:07:35.700Z,6.35
2019-06-20T07:12:39.987Z,6.62
2019-06-20T07:15:12.264Z,5.40
2019-06-20T07:17:44.351Z,5.03
2019-06-20T07:20:16.419Z,4.87
2019-06-20T07:22:48.663Z,5.47
2019-06-20T07:25:20.732Z,5.55
2019-06-20T07:27:52.836Z,5.00
2019-06-20T07:30:24.858Z,5.20
2019-06-20T07:32:57.343Z,5.10
2019-06-20T07:35:30.653Z,5.20
2019-06-20T07:38:03.903Z,4.70
2019-06-20T07:40:35.975Z,4.42
2019-06-20T07:43:08.062Z,4.40
2019-06-20T07:45:39.836Z,4.22
2019-06-20T07:48:13.404Z,4.92
2019-06-20T07:50:46.031Z,4.87
2019-06-20T07:53:18.113Z,37.80
2019-06-20T07:55:50.209Z,10.90
2019-06-20T07:58:22.332Z,4.37
2019-06-20T08:00:54.367Z,3.42
2019-06-20T08:03:26.350Z,3.50
2019-06-20T08:05:58.183Z,5.90
2019-06-20T08:08:30.422Z,6.78
2019-06-20T08:11:02.513Z,4.45
2019-06-20T08:13:34.519Z,8.70
2019-06-20T08:16:06.796Z,14.98
2019-06-20T08:18:39.019Z,14.20
2019-06-20T08:21:11.173Z,8.98
2019-06-20T08:23:43.228Z,19.67
2019-06-20T08:26:15.333Z,5.78
2019-06-20T08:28:47.317Z,5.47
2019-06-20T08:31:19.434Z,3.47
2019-06-20T08:33:51.342Z,3.58
2019-06-20T08:36:23.434Z,5.20
2019-06-20T08:38:56.999Z,26.33
2019-06-20T08:41:29.511Z,7.00
2019-06-20T08:44:01.812Z,4.12
2019-06-20T08:46:34.203Z,4.20
2019-06-20T08:49:06.335Z,4.43
2019-06-20T08:51:38.295Z,5.65
2019-06-20T08:54:10.356Z,6.20
2019-06-20T08:56:42.446Z,3.33
2019-06-20T08:59:23.985Z,3.30
2019-06-20T09:01:48.477Z,3.08
2019-06-20T09:04:22.487Z,3.00
2019-06-20T09:06:55.730Z,3.27
2019-06-20T09:09:28.380Z,3.90
2019-06-20T09:12:00.620Z,3.45
2019-06-20T09:14:32.767Z,2.65
2019-06-20T09:17:04.719Z,3.20
2019-06-20T09:19:36.620Z,3.60
2019-06-20T09:22:08.900Z,3.10
2019-06-20T09:24:40.765Z,3.02
2019-06-20T09:27:12.920Z,5.42
2019-06-20T09:29:45.253Z,39.75
2019-06-20T09:32:17.604Z,24.87
2019-06-20T09:34:51.338Z,3.50
2019-06-20T09:37:23.889Z,3.98
2019-06-20T09:39:57.190Z,4.30
2019-06-20T09:42:29.343Z,3.10
2019-06-20T09:45:02.843Z,2.83
2019-06-20T09:47:34.784Z,5.60
2019-06-20T09:50:10.598Z,3.22
2019-06-20T09:52:42.492Z,2.87
2019-06-20T09:55:14.384Z,2.90
2019-06-20T09:57:47.320Z,3.98
2019-06-20T10:02:55.420Z,2.77
2019-06-20T10:05:26.426Z,3.70
2019-06-20T10:07:58.479Z,3.08
2019-06-20T10:10:30.850Z,2.47
2019-06-20T10:13:03.187Z,2.70
2019-06-20T10:15:37.262Z,2.83
2019-06-20T10:20:40.167Z,2.85
2019-06-20T10:23:12.109Z,2.60
2019-06-20T10:25:46.091Z,2.70
2019-06-20T10:28:17.455Z,3.17
2019-06-20T10:30:51.064Z,2.50
2019-06-20T10:33:22.985Z,2.70
2019-06-20T10:35:54.905Z,2.95
2019-06-20T10:38:27.014Z,2.77
2019-06-20T10:41:00.096Z,4.50
2019-06-20T10:43:32.238Z,4.87
2019-06-20T10:46:04.537Z,3.80
2019-06-20T10:48:36.631Z,2.37
2019-06-20T10:51:26.236Z,3.70
2019-06-20T10:53:58.486Z,4.78
2019-06-20T10:56:30.728Z,2.92
2019-06-20T10:59:03.891Z,2.50
2019-06-20T11:01:35.952Z,2.30
2019-06-20T11:04:07.856Z,2.60
2019-06-20T11:06:41.639Z,3.33
2019-06-20T11:09:13.821Z,3.60
2019-06-20T11:11:47.133Z,3.00
2019-06-20T11:14:19.244Z,2.65
2019-06-20T11:16:51.768Z,3.10
2019-06-20T11:19:23.862Z,3.50
2019-06-20T11:21:55.703Z,3.12
2019-06-20T11:24:27.550Z,3.40
2019-06-20T11:26:59.636Z,2.98
2019-06-20T11:29:31.373Z,3.20
2019-06-20T11:32:03.491Z,3.35
2019-06-20T11:34:35.251Z,4.12
2019-06-20T11:37:07.431Z,3.80
2019-06-20T11:39:39.423Z,2.98
2019-06-20T11:42:11.314Z,7.78
2019-06-20T11:44:43.428Z,5.00
2019-06-20T11:47:15.614Z,3.50
2019-06-20T11:49:47.769Z,13.75
2019-06-20T11:52:20.212Z,3.00
2019-06-20T11:54:52.301Z,3.40
2019-06-20T11:57:24.656Z,4.25
2019-06-20T11:59:56.817Z,3.40
2019-06-20T12:02:28.890Z,4.10
2019-06-20T12:05:01.320Z,5.53
2019-06-20T12:07:33.740Z,3.27
2019-06-20T12:10:08.761Z,3.02
2019-06-20T12:12:41.065Z,4.12
2019-06-20T12:15:15.736Z,4.30
2019-06-20T12:17:49.241Z,6.92
2019-06-20T12:20:21.731Z,2.40
2019-06-20T12:22:53.807Z,3.72
2019-06-20T12:25:26.179Z,9.85
2019-06-20T12:27:58.423Z,15.78
2019-06-20T12:30:30.488Z,11.18
2019-06-20T12:33:02.918Z,2.70
2019-06-20T12:35:34.996Z,7.22
2019-06-20T12:38:07.152Z,8.28
2019-06-20T12:40:40.814Z,8.65
2019-06-20T12:43:12.967Z,3.17
2019-06-20T16:57:52.643Z,5.00
2019-06-20T17:00:25.216Z,4.97
2019-06-20T17:02:57.700Z,6.03
2019-06-20T17:05:29.858Z,4.62
2019-06-20T17:08:03.162Z,4.40
2019-06-20T17:10:35.644Z,5.03
2019-06-20T17:13:07.934Z,3.92
2019-06-20T17:15:40.363Z,4.40
2019-06-20T17:18:12.545Z,24.07
2019-06-20T17:20:44.796Z,5.60
2019-06-20T17:23:17.178Z,6.22
2019-06-20T17:25:49.550Z,4.87
2019-06-20T17:28:21.763Z,4.70
2019-06-20T17:30:54.213Z,4.65
2019-06-20T17:33:26.232Z,4.25
2019-06-20T17:35:58.193Z,4.87
2019-06-20T17:38:30.226Z,4.47
2019-06-20T17:41:02.051Z,4.30
2019-06-20T17:43:33.857Z,4.25
2019-06-20T17:46:05.866Z,3.37
2019-06-20T17:48:38.135Z,4.60
2019-06-20T17:51:10.298Z,8.35
2019-06-20T17:53:42.222Z,10.08
2019-06-20T17:56:17.849Z,4.90
2019-06-20T17:58:48.489Z,4.45
2019-06-20T18:01:20.682Z,5.22
2019-06-20T18:03:52.684Z,5.47
2019-06-20T18:06:24.696Z,5.75
2019-06-20T18:08:56.816Z,5.50
2019-06-20T18:11:29.126Z,6.00
2019-06-20T18:14:01.215Z,6.20
2019-06-20T18:16:33.270Z,5.72
2019-06-20T18:19:05.493Z,6.08
2019-06-20T18:21:37.470Z,6.70
2019-06-20T18:24:10.949Z,6.90
2019-06-20T18:26:43.295Z,6.53
2019-06-20T18:29:15.468Z,7.08
2019-06-20T18:31:47.551Z,5.87
2019-06-20T18:34:29.505Z,7.08
2019-06-20T18:36:53.514Z,6.33
2019-06-20T18:39:25.987Z,5.90
2019-06-20T18:41:58.653Z,6.28
2019-06-20T18:44:30.582Z,6.45
2019-06-20T18:47:03.045Z,6.78
2019-06-20T18:49:35.119Z,6.87
2019-06-20T18:52:07.160Z,8.13
2019-06-20T18:54:39.228Z,7.58
2019-06-20T18:57:11.551Z,8.10
2019-06-20T18:59:43.645Z,9.10
2019-06-20T19:02:15.773Z,10.18
2019-06-20T19:04:50.777Z,10.60
2019-06-20T19:07:23.302Z,11.00
2019-06-20T19:09:55.319Z,11.03
2019-06-20T19:12:27.437Z,12.03
2019-06-20T19:14:59.443Z,9.45
2019-06-20T19:17:31.479Z,9.85
2019-06-20T19:20:04.630Z,11.20
2019-06-20T19:22:36.755Z,12.27
2019-06-20T19:25:09.763Z,12.27
2019-06-20T19:27:46.610Z,11.68
2019-06-20T19:30:17.179Z,12.58
2019-06-20T19:32:49.421Z,12.05
2019-06-20T19:35:21.896Z,13.00
2019-06-20T19:37:55.324Z,14.70
2019-06-20T19:40:30.604Z,14.40
2019-06-20T19:43:04.506Z,13.90
2019-06-20T19:45:36.603Z,12.58
2019-06-20T19:48:09.137Z,14.65
2019-06-20T19:50:41.219Z,16.23
2019-06-20T19:53:13.618Z,15.55
2019-06-20T19:55:45.688Z,17.82
2019-06-20T19:58:18.330Z,13.68
2019-06-20T20:00:50.406Z,11.50
2019-06-20T20:03:23.422Z,11.70
2019-06-20T20:05:58.268Z,11.90
2019-06-20T20:08:29.750Z,9.83
2019-06-20T20:11:01.882Z,9.43
2019-06-20T20:13:34.546Z,9.98
2019-06-20T20:16:06.576Z,9.05
2019-06-20T20:18:38.706Z,9.20
2019-06-20T20:21:10.787Z,9.70
2019-06-20T20:23:44.780Z,9.30
2019-06-20T20:26:16.985Z,9.05
2019-06-20T20:28:49.314Z,16.15
2019-06-20T20:31:21.424Z,12.88
2019-06-20T20:33:54.170Z,11.63
2019-06-20T20:36:26.692Z,9.33
2019-06-20T20:38:59.818Z,9.13
2019-06-20T20:41:31.812Z,9.50
2019-06-20T20:44:04.726Z,9.80
2019-06-20T20:46:36.921Z,10.90
2019-06-20T20:49:08.871Z,11.83
2019-06-20T20:51:40.827Z,12.30
2019-06-20T20:54:12.971Z,14.28
2019-06-20T20:56:45.095Z,17.95
2019-06-20T20:59:17.281Z,17.95
2019-06-20T21:01:49.579Z,17.35
2019-06-20T21:04:22.124Z,18.27
2019-06-20T21:06:54.249Z,16.45
2019-06-20T21:09:26.505Z,16.10
2019-06-20T21:11:58.594Z,16.00
2019-06-20T21:14:31.339Z,16.17
2019-06-20T21:17:03.418Z,13.53
2019-06-20T21:19:38.659Z,13.58
2019-06-20T21:22:10.617Z,12.50
2019-06-20T21:24:42.862Z,12.35
2019-06-20T21:27:15.153Z,12.75
2019-06-20T21:29:48.870Z,13.03
2019-06-20T21:32:20.936Z,14.15
2019-06-20T21:34:53.150Z,14.25
2019-06-20T21:37:25.149Z,13.83
2019-06-20T21:39:57.399Z,15.53
2019-06-20T21:42:29.386Z,16.32
2019-06-20T21:45:01.619Z,15.30
2019-06-20T21:47:33.863Z,15.48
2019-06-20T21:50:08.690Z,15.68
2019-06-20T21:52:41.273Z,18.70
2019-06-20T21:55:13.694Z,17.87
2019-06-20T21:57:46.659Z,15.48
2019-06-20T22:00:37.706Z,15.72
2019-06-20T22:03:12.158Z,15.32
2019-06-20T22:05:44.174Z,13.90
2019-06-20T22:08:17.015Z,12.35
2019-06-20T22:10:49.218Z,12.30
2019-06-20T22:13:22.088Z,10.98
2019-06-20T22:15:54.204Z,12.15
2019-06-20T22:18:26.958Z,11.78
2019-06-20T22:20:59.088Z,12.53
2019-06-20T22:23:31.776Z,11.63
2019-06-20T22:26:04.020Z,11.95
2019-06-20T22:28:36.671Z,11.35
2019-06-20T22:31:08.765Z,11.55
2019-06-20T22:33:41.440Z,11.65
2019-06-20T22:36:13.682Z,11.68
2019-06-20T22:38:46.689Z,11.57
2019-06-20T22:41:18.759Z,11.65
2019-06-20T22:43:51.752Z,11.88
2019-06-20T22:46:23.832Z,12.98
2019-06-20T22:48:56.569Z,13.28
2019-06-20T22:51:28.980Z,12.53
2019-06-20T22:54:02.068Z,11.35
2019-06-20T22:56:34.179Z,12.60
2019-06-20T22:59:07.444Z,10.85
2019-06-20T23:01:39.460Z,10.82
2019-06-20T23:04:12.047Z,11.28
2019-06-20T23:06:55.851Z,9.05
2019-06-20T23:09:18.048Z,8.65
2019-06-20T23:11:50.183Z,8.08
2019-06-20T23:14:22.360Z,8.40
2019-06-20T23:16:54.819Z,8.60
2019-06-20T23:19:27.912Z,7.97
2019-06-20T23:22:00.176Z,7.78
2019-06-20T23:24:32.371Z,8.83
2019-06-20T23:27:04.481Z,8.35
2019-06-20T23:29:36.628Z,8.43
2019-06-20T23:32:09.047Z,8.80
2019-06-20T23:34:41.210Z,8.13
2019-06-20T23:37:13.570Z,7.35
2019-06-20T23:39:45.741Z,8.93
2019-06-20T23:42:18.127Z,7.45
2019-06-20T23:44:50.241Z,8.33
2019-06-20T23:47:22.368Z,8.20
2019-06-20T23:49:54.844Z,8.33
2019-06-20T23:52:29.547Z,8.50
2019-06-20T23:55:01.850Z,8.80
2019-06-20T23:57:34.109Z,8.58
